sensor_id;sensor_type;location;lat;lon;timestamp;temperature;humidity
14349;DHT22;7258;50.376;8.742;2024-02-28T00:00:24;2.50;99.90
14349;DHT22;7258;50.376;8.742;2024-02-28T00:02:27;2.50;99.90
14349;DHT22;7258;50.376;8.742;2024-02-28T00:04:32;2.50;99.90
14349;DHT22;7258;50.376;8.742;2024-02-28T00:06:37;2.50;99.90
14349;DHT22;7258;50.376;8.742;2024-02-28T00:08:40;2.50;99.90
14349;DHT22;7258;50.376;8.742;2024-02-28T00:10:42;2.50;99.90
14349;DHT22;7258;50.376;8.742;2024-02-28T00:12:45;2.50;99.90
14349;DHT22;7258;50.376;8.742;2024-02-28T00:14:48;2.50;99.90
14349;DHT22;7258;50.376;8.742;2024-02-28T00:16:52;2.50;99.90
14349;DHT22;7258;50.376;8.742;2024-02-28T00:18:55;2.50;99.90
14349;DHT22;7258;50.376;8.742;2024-02-28T00:20:57;2.40;99.90
14349;DHT22;7258;50.376;8.742;2024-02-28T00:23:00;2.40;99.90
14349;DHT22;7258;50.376;8.742;2024-02-28T00:25:04;2.40;99.90
14349;DHT22;7258;50.376;8.742;2024-02-28T00:27:08;2.40;99.90
14349;DHT22;7258;50.376;8.742;2024-02-28T00:29:11;2.40;99.90
14349;DHT22;7258;50.376;8.742;2024-02-28T00:31:14;2.40;99.90
14349;DHT22;7258;50.376;8.742;2024-02-28T00:33:18;2.40;99.90
14349;DHT22;7258;50.376;8.742;2024-02-28T00:35:21;2.40;99.90
14349;DHT22;7258;50.376;8.742;2024-02-28T00:37:23;2.40;99.90
14349;DHT22;7258;50.376;8.742;2024-02-28T00:39:26;2.40;99.90
14349;DHT22;7258;50.376;8.742;2024-02-28T00:41:29;2.40;99.90
14349;DHT22;7258;50.376;8.742;2024-02-28T00:43:32;2.40;99.90
14349;DHT22;7258;50.376;8.742;2024-02-28T00:45:35;2.40;99.90
14349;DHT22;7258;50.376;8.742;2024-02-28T00:47:38;2.40;99.90
14349;DHT22;7258;50.376;8.742;2024-02-28T00:49:43;2.50;99.90
14349;DHT22;7258;50.376;8.742;2024-02-28T00:51:46;2.40;99.90
14349;DHT22;7258;50.376;8.742;2024-02-28T00:53:49;2.50;99.90
14349;DHT22;7258;50.376;8.742;2024-02-28T00:55:51;2.50;99.90
14349;DHT22;7258;50.376;8.742;2024-02-28T00:57:54;2.50;99.90
14349;DHT22;7258;50.376;8.742;2024-02-28T00:59:57;2.40;99.90
14349;DHT22;7258;50.376;8.742;2024-02-28T01:01:59;2.40;99.90
14349;DHT22;7258;50.376;8.742;2024-02-28T01:04:02;2.40;99.90
14349;DHT22;7258;50.376;8.742;2024-02-28T01:06:06;2.40;99.90
14349;DHT22;7258;50.376;8.742;2024-02-28T01:08:09;2.30;99.90
14349;DHT22;7258;50.376;8.742;2024-02-28T01:10:12;2.30;99.90
14349;DHT22;7258;50.376;8.742;2024-02-28T01:12:15;2.20;99.90
14349;DHT22;7258;50.376;8.742;2024-02-28T01:14:18;2.20;99.90
14349;DHT22;7258;50.376;8.742;2024-02-28T01:16:20;2.20;99.90
14349;DHT22;7258;50.376;8.742;2024-02-28T01:18:23;2.10;99.90
14349;DHT22;7258;50.376;8.742;2024-02-28T01:20:26;2.10;99.90
14349;DHT22;7258;50.376;8.742;2024-02-28T01:22:30;2.00;99.90
14349;DHT22;7258;50.376;8.742;2024-02-28T01:24:33;1.90;99.90
14349;DHT22;7258;50.376;8.742;2024-02-28T01:26:36;1.90;99.90
14349;DHT22;7258;50.376;8.742;2024-02-28T01:28:39;1.90;99.90
14349;DHT22;7258;50.376;8.742;2024-02-28T01:30:42;1.80;99.90
14349;DHT22;7258;50.376;8.742;2024-02-28T01:32:44;1.80;99.90
14349;DHT22;7258;50.376;8.742;2024-02-28T01:34:47;1.80;99.90
14349;DHT22;7258;50.376;8.742;2024-02-28T01:36:50;1.80;99.90
14349;DHT22;7258;50.376;8.742;2024-02-28T01:38:54;1.70;99.90
14349;DHT22;7258;50.376;8.742;2024-02-28T01:40:57;1.70;99.90
14349;DHT22;7258;50.376;8.742;2024-02-28T01:43:03;1.60;99.90
14349;DHT22;7258;50.376;8.742;2024-02-28T01:45:06;1.60;99.90
14349;DHT22;7258;50.376;8.742;2024-02-28T01:47:11;1.60;99.90
14349;DHT22;7258;50.376;8.742;2024-02-28T01:49:13;1.50;99.90
14349;DHT22;7258;50.376;8.742;2024-02-28T01:51:17;1.50;99.90
14349;DHT22;7258;50.376;8.742;2024-02-28T01:53:20;1.50;99.90
14349;DHT22;7258;50.376;8.742;2024-02-28T01:55:25;1.50;99.90
14349;DHT22;7258;50.376;8.742;2024-02-28T01:57:27;1.50;99.90
14349;DHT22;7258;50.376;8.742;2024-02-28T01:59:31;1.50;99.90
14349;DHT22;7258;50.376;8.742;2024-02-28T02:01:35;1.50;99.90
14349;DHT22;7258;50.376;8.742;2024-02-28T02:03:38;1.40;99.90
14349;DHT22;7258;50.376;8.742;2024-02-28T02:05:42;1.40;99.90
14349;DHT22;7258;50.376;8.742;2024-02-28T02:07:45;1.40;99.90
14349;DHT22;7258;50.376;8.742;2024-02-28T02:09:49;1.40;99.90
14349;DHT22;7258;50.376;8.742;2024-02-28T02:11:53;1.40;99.90
14349;DHT22;7258;50.376;8.742;2024-02-28T02:13:56;1.40;99.90
14349;DHT22;7258;50.376;8.742;2024-02-28T02:15:59;1.40;99.90
14349;DHT22;7258;50.376;8.742;2024-02-28T02:18:02;1.50;99.90
14349;DHT22;7258;50.376;8.742;2024-02-28T02:20:06;1.50;99.90
14349;DHT22;7258;50.376;8.742;2024-02-28T02:22:10;1.50;99.90
14349;DHT22;7258;50.376;8.742;2024-02-28T02:24:15;1.50;99.90
14349;DHT22;7258;50.376;8.742;2024-02-28T02:26:19;1.40;99.90
14349;DHT22;7258;50.376;8.742;2024-02-28T02:28:21;1.40;99.90
14349;DHT22;7258;50.376;8.742;2024-02-28T02:30:24;1.30;99.90
14349;DHT22;7258;50.376;8.742;2024-02-28T02:32:27;1.30;99.90
14349;DHT22;7258;50.376;8.742;2024-02-28T02:34:31;1.20;99.90
14349;DHT22;7258;50.376;8.742;2024-02-28T02:36:34;1.20;99.90
14349;DHT22;7258;50.376;8.742;2024-02-28T02:38:37;1.10;99.90
14349;DHT22;7258;50.376;8.742;2024-02-28T02:40:41;1.00;99.90
14349;DHT22;7258;50.376;8.742;2024-02-28T02:42:44;0.90;99.90
14349;DHT22;7258;50.376;8.742;2024-02-28T02:44:47;0.90;99.90
14349;DHT22;7258;50.376;8.742;2024-02-28T02:46:49;0.80;99.90
14349;DHT22;7258;50.376;8.742;2024-02-28T02:48:52;0.80;99.90
14349;DHT22;7258;50.376;8.742;2024-02-28T02:50:55;0.80;99.90
14349;DHT22;7258;50.376;8.742;2024-02-28T02:52:59;0.80;99.90
14349;DHT22;7258;50.376;8.742;2024-02-28T02:55:02;0.70;99.90
14349;DHT22;7258;50.376;8.742;2024-02-28T02:57:07;0.70;99.90
14349;DHT22;7258;50.376;8.742;2024-02-28T02:59:10;0.70;99.90
14349;DHT22;7258;50.376;8.742;2024-02-28T03:01:13;0.70;99.90
14349;DHT22;7258;50.376;8.742;2024-02-28T03:03:16;0.60;99.90
14349;DHT22;7258;50.376;8.742;2024-02-28T03:05:19;0.60;99.90
14349;DHT22;7258;50.376;8.742;2024-02-28T03:07:22;0.60;99.90
14349;DHT22;7258;50.376;8.742;2024-02-28T03:09:25;0.60;99.90
14349;DHT22;7258;50.376;8.742;2024-02-28T03:11:26;0.60;99.90
14349;DHT22;7258;50.376;8.742;2024-02-28T03:13:31;0.60;99.90
14349;DHT22;7258;50.376;8.742;2024-02-28T03:15:34;0.70;99.90
14349;DHT22;7258;50.376;8.742;2024-02-28T03:17:37;0.60;99.90
14349;DHT22;7258;50.376;8.742;2024-02-28T03:19:40;0.60;99.90
14349;DHT22;7258;50.376;8.742;2024-02-28T03:21:43;0.70;99.90
14349;DHT22;7258;50.376;8.742;2024-02-28T03:23:46;0.70;99.90
14349;DHT22;7258;50.376;8.742;2024-02-28T03:25:49;0.70;99.90
14349;DHT22;7258;50.376;8.742;2024-02-28T03:27:52;0.60;99.90
14349;DHT22;7258;50.376;8.742;2024-02-28T03:29:56;0.50;99.90
14349;DHT22;7258;50.376;8.742;2024-02-28T03:31:59;0.50;99.90
14349;DHT22;7258;50.376;8.742;2024-02-28T03:34:02;0.40;99.90
14349;DHT22;7258;50.376;8.742;2024-02-28T03:36:04;0.40;99.90
14349;DHT22;7258;50.376;8.742;2024-02-28T03:38:07;0.30;99.90
14349;DHT22;7258;50.376;8.742;2024-02-28T03:40:11;0.30;99.90
14349;DHT22;7258;50.376;8.742;2024-02-28T03:42:14;0.30;99.90
14349;DHT22;7258;50.376;8.742;2024-02-28T03:44:16;0.20;99.90
14349;DHT22;7258;50.376;8.742;2024-02-28T03:46:20;0.20;99.90
14349;DHT22;7258;50.376;8.742;2024-02-28T03:48:23;0.20;99.90
14349;DHT22;7258;50.376;8.742;2024-02-28T03:50:26;0.20;99.90
14349;DHT22;7258;50.376;8.742;2024-02-28T03:52:28;0.20;99.90
14349;DHT22;7258;50.376;8.742;2024-02-28T03:54:32;0.20;99.90
14349;DHT22;7258;50.376;8.742;2024-02-28T03:56:34;0.20;99.90
14349;DHT22;7258;50.376;8.742;2024-02-28T03:58:39;0.30;99.90
14349;DHT22;7258;50.376;8.742;2024-02-28T04:00:41;0.30;99.90
14349;DHT22;7258;50.376;8.742;2024-02-28T04:02:47;0.30;99.90
14349;DHT22;7258;50.376;8.742;2024-02-28T04:04:50;0.20;99.90
14349;DHT22;7258;50.376;8.742;2024-02-28T04:06:53;0.20;99.90
14349;DHT22;7258;50.376;8.742;2024-02-28T04:08:55;0.20;99.90
14349;DHT22;7258;50.376;8.742;2024-02-28T04:10:58;0.10;99.90
14349;DHT22;7258;50.376;8.742;2024-02-28T04:13:01;0.00;99.90
14349;DHT22;7258;50.376;8.742;2024-02-28T04:15:04;0.00;99.90
14349;DHT22;7258;50.376;8.742;2024-02-28T04:17:07;0.00;99.90
14349;DHT22;7258;50.376;8.742;2024-02-28T04:19:11;-0.10;99.90
14349;DHT22;7258;50.376;8.742;2024-02-28T04:21:14;-0.10;99.90
14349;DHT22;7258;50.376;8.742;2024-02-28T04:23:16;-0.20;99.90
14349;DHT22;7258;50.376;8.742;2024-02-28T04:25:19;-0.20;99.90
14349;DHT22;7258;50.376;8.742;2024-02-28T04:27:21;-0.20;99.90
14349;DHT22;7258;50.376;8.742;2024-02-28T04:29:24;-0.20;99.90
14349;DHT22;7258;50.376;8.742;2024-02-28T04:31:26;-0.20;99.90
14349;DHT22;7258;50.376;8.742;2024-02-28T04:33:29;-0.30;99.90
14349;DHT22;7258;50.376;8.742;2024-02-28T04:35:33;-0.30;99.90
14349;DHT22;7258;50.376;8.742;2024-02-28T04:37:35;-0.30;99.90
14349;DHT22;7258;50.376;8.742;2024-02-28T04:39:38;-0.30;99.90
14349;DHT22;7258;50.376;8.742;2024-02-28T04:41:40;-0.30;99.90
14349;DHT22;7258;50.376;8.742;2024-02-28T04:43:44;-0.30;99.90
14349;DHT22;7258;50.376;8.742;2024-02-28T04:45:45;-0.30;99.90
14349;DHT22;7258;50.376;8.742;2024-02-28T04:47:48;-0.40;99.90
14349;DHT22;7258;50.376;8.742;2024-02-28T04:49:53;-0.40;99.90
14349;DHT22;7258;50.376;8.742;2024-02-28T04:51:57;-0.40;99.90
14349;DHT22;7258;50.376;8.742;2024-02-28T04:54:00;-0.50;99.90
14349;DHT22;7258;50.376;8.742;2024-02-28T04:56:04;-0.50;99.90
14349;DHT22;7258;50.376;8.742;2024-02-28T04:58:07;-0.50;99.90
14349;DHT22;7258;50.376;8.742;2024-02-28T05:00:10;-0.50;99.90
14349;DHT22;7258;50.376;8.742;2024-02-28T05:02:13;-0.50;99.90
14349;DHT22;7258;50.376;8.742;2024-02-28T05:04:17;-0.50;99.90
14349;DHT22;7258;50.376;8.742;2024-02-28T05:06:19;-0.60;99.90
14349;DHT22;7258;50.376;8.742;2024-02-28T05:08:24;-0.50;99.90
14349;DHT22;7258;50.376;8.742;2024-02-28T05:10:29;-0.50;99.90
14349;DHT22;7258;50.376;8.742;2024-02-28T05:12:31;-0.50;99.90
14349;DHT22;7258;50.376;8.742;2024-02-28T05:14:34;-0.40;99.90
14349;DHT22;7258;50.376;8.742;2024-02-28T05:16:37;-0.50;99.90
14349;DHT22;7258;50.376;8.742;2024-02-28T05:18:40;-0.50;99.90
14349;DHT22;7258;50.376;8.742;2024-02-28T05:20:43;-0.50;99.90
14349;DHT22;7258;50.376;8.742;2024-02-28T05:22:46;-0.50;99.90
14349;DHT22;7258;50.376;8.742;2024-02-28T05:24:50;-0.50;99.90
14349;DHT22;7258;50.376;8.742;2024-02-28T05:26:54;-0.60;99.90
14349;DHT22;7258;50.376;8.742;2024-02-28T05:28:56;-0.60;99.90
14349;DHT22;7258;50.376;8.742;2024-02-28T05:30:59;-0.50;99.90
14349;DHT22;7258;50.376;8.742;2024-02-28T05:33:02;-0.50;99.90
14349;DHT22;7258;50.376;8.742;2024-02-28T05:35:05;-0.50;99.90
14349;DHT22;7258;50.376;8.742;2024-02-28T05:37:09;-0.40;99.90
14349;DHT22;7258;50.376;8.742;2024-02-28T05:39:11;-0.50;99.90
14349;DHT22;7258;50.376;8.742;2024-02-28T05:41:16;-0.50;99.90
14349;DHT22;7258;50.376;8.742;2024-02-28T05:43:19;-0.50;99.90
14349;DHT22;7258;50.376;8.742;2024-02-28T05:45:22;-0.50;99.90
14349;DHT22;7258;50.376;8.742;2024-02-28T05:47:24;-0.50;99.90
14349;DHT22;7258;50.376;8.742;2024-02-28T05:49:27;-0.40;99.90
14349;DHT22;7258;50.376;8.742;2024-02-28T05:51:30;-0.40;99.90
14349;DHT22;7258;50.376;8.742;2024-02-28T05:53:33;-0.30;99.90
14349;DHT22;7258;50.376;8.742;2024-02-28T05:55:37;-0.30;99.90
14349;DHT22;7258;50.376;8.742;2024-02-28T05:57:42;-0.30;99.90
14349;DHT22;7258;50.376;8.742;2024-02-28T05:59:43;-0.20;99.90
14349;DHT22;7258;50.376;8.742;2024-02-28T06:01:46;-0.20;99.90
14349;DHT22;7258;50.376;8.742;2024-02-28T06:03:49;-0.20;99.90
14349;DHT22;7258;50.376;8.742;2024-02-28T06:05:53;-0.20;99.90
14349;DHT22;7258;50.376;8.742;2024-02-28T06:07:57;-0.20;99.90
14349;DHT22;7258;50.376;8.742;2024-02-28T06:10:00;-0.10;99.90
14349;DHT22;7258;50.376;8.742;2024-02-28T06:12:03;-0.10;99.90
14349;DHT22;7258;50.376;8.742;2024-02-28T06:14:07;-0.20;99.90
14349;DHT22;7258;50.376;8.742;2024-02-28T06:16:13;-0.10;99.90
14349;DHT22;7258;50.376;8.742;2024-02-28T06:18:17;-0.10;99.90
14349;DHT22;7258;50.376;8.742;2024-02-28T06:20:19;-0.10;99.90
14349;DHT22;7258;50.376;8.742;2024-02-28T06:22:22;-0.10;99.90
14349;DHT22;7258;50.376;8.742;2024-02-28T06:24:25;-0.10;99.90
14349;DHT22;7258;50.376;8.742;2024-02-28T06:26:28;0.00;99.90
14349;DHT22;7258;50.376;8.742;2024-02-28T06:28:32;0.00;99.90
14349;DHT22;7258;50.376;8.742;2024-02-28T06:30:36;0.10;99.90
14349;DHT22;7258;50.376;8.742;2024-02-28T06:32:38;0.10;99.90
14349;DHT22;7258;50.376;8.742;2024-02-28T06:34:41;0.20;99.90
14349;DHT22;7258;50.376;8.742;2024-02-28T06:36:44;0.20;99.90
14349;DHT22;7258;50.376;8.742;2024-02-28T06:38:48;0.20;99.90
14349;DHT22;7258;50.376;8.742;2024-02-28T06:40:51;0.30;99.90
14349;DHT22;7258;50.376;8.742;2024-02-28T06:42:55;0.40;99.90
14349;DHT22;7258;50.376;8.742;2024-02-28T06:44:58;0.50;99.90
14349;DHT22;7258;50.376;8.742;2024-02-28T06:47:02;0.60;99.90
14349;DHT22;7258;50.376;8.742;2024-02-28T06:49:05;0.60;99.90
14349;DHT22;7258;50.376;8.742;2024-02-28T06:51:08;0.70;99.90
14349;DHT22;7258;50.376;8.742;2024-02-28T06:53:11;0.80;99.90
14349;DHT22;7258;50.376;8.742;2024-02-28T06:55:14;0.90;99.90
14349;DHT22;7258;50.376;8.742;2024-02-28T06:57:16;0.90;99.90
14349;DHT22;7258;50.376;8.742;2024-02-28T06:59:19;1.00;99.90
14349;DHT22;7258;50.376;8.742;2024-02-28T07:01:22;1.00;99.90
14349;DHT22;7258;50.376;8.742;2024-02-28T07:03:26;1.10;99.90
14349;DHT22;7258;50.376;8.742;2024-02-28T07:05:29;1.10;99.90
14349;DHT22;7258;50.376;8.742;2024-02-28T07:07:31;1.10;99.90
14349;DHT22;7258;50.376;8.742;2024-02-28T07:09:33;1.20;99.90
14349;DHT22;7258;50.376;8.742;2024-02-28T07:11:37;1.10;99.90
14349;DHT22;7258;50.376;8.742;2024-02-28T07:13:41;1.20;99.90
14349;DHT22;7258;50.376;8.742;2024-02-28T07:15:44;1.20;99.90
14349;DHT22;7258;50.376;8.742;2024-02-28T07:17:46;1.20;99.90
14349;DHT22;7258;50.376;8.742;2024-02-28T07:19:50;1.20;99.90
14349;DHT22;7258;50.376;8.742;2024-02-28T07:21:53;1.20;99.90
14349;DHT22;7258;50.376;8.742;2024-02-28T07:23:55;1.20;99.90
14349;DHT22;7258;50.376;8.742;2024-02-28T07:25:58;1.20;99.90
14349;DHT22;7258;50.376;8.742;2024-02-28T07:28:13;1.20;99.90
14349;DHT22;7258;50.376;8.742;2024-02-28T07:30:16;1.20;99.90
14349;DHT22;7258;50.376;8.742;2024-02-28T07:32:19;1.20;99.90
14349;DHT22;7258;50.376;8.742;2024-02-28T07:34:22;1.20;99.90
14349;DHT22;7258;50.376;8.742;2024-02-28T07:36:26;1.20;99.90
14349;DHT22;7258;50.376;8.742;2024-02-28T07:38:29;1.20;99.90
14349;DHT22;7258;50.376;8.742;2024-02-28T07:40:32;1.20;99.90
14349;DHT22;7258;50.376;8.742;2024-02-28T07:42:34;1.20;99.90
14349;DHT22;7258;50.376;8.742;2024-02-28T07:44:37;1.20;99.90
14349;DHT22;7258;50.376;8.742;2024-02-28T07:46:41;1.30;99.90
14349;DHT22;7258;50.376;8.742;2024-02-28T07:48:44;1.30;99.90
14349;DHT22;7258;50.376;8.742;2024-02-28T07:50:46;1.40;99.90
14349;DHT22;7258;50.376;8.742;2024-02-28T07:52:53;1.40;99.90
14349;DHT22;7258;50.376;8.742;2024-02-28T07:54:56;1.50;99.90
14349;DHT22;7258;50.376;8.742;2024-02-28T07:56:59;1.50;99.90
14349;DHT22;7258;50.376;8.742;2024-02-28T07:59:01;1.60;99.90
14349;DHT22;7258;50.376;8.742;2024-02-28T08:01:04;1.70;99.90
14349;DHT22;7258;50.376;8.742;2024-02-28T08:03:07;1.80;99.90
14349;DHT22;7258;50.376;8.742;2024-02-28T08:05:10;1.80;99.90
14349;DHT22;7258;50.376;8.742;2024-02-28T08:07:13;1.90;99.90
14349;DHT22;7258;50.376;8.742;2024-02-28T08:09:18;2.00;99.90
14349;DHT22;7258;50.376;8.742;2024-02-28T08:11:21;2.10;99.90
14349;DHT22;7258;50.376;8.742;2024-02-28T08:13:25;2.20;99.90
14349;DHT22;7258;50.376;8.742;2024-02-28T08:15:30;2.20;99.90
14349;DHT22;7258;50.376;8.742;2024-02-28T08:17:32;2.30;99.90
14349;DHT22;7258;50.376;8.742;2024-02-28T08:19:36;2.30;99.90
14349;DHT22;7258;50.376;8.742;2024-02-28T08:21:39;2.30;99.90
14349;DHT22;7258;50.376;8.742;2024-02-28T08:23:42;2.40;99.90
14349;DHT22;7258;50.376;8.742;2024-02-28T08:25:46;2.30;99.90
14349;DHT22;7258;50.376;8.742;2024-02-28T08:27:49;2.40;99.90
14349;DHT22;7258;50.376;8.742;2024-02-28T08:29:52;2.40;99.90
14349;DHT22;7258;50.376;8.742;2024-02-28T08:31:56;2.50;99.90
14349;DHT22;7258;50.376;8.742;2024-02-28T08:33:58;2.50;99.90
14349;DHT22;7258;50.376;8.742;2024-02-28T08:36:02;2.50;99.90
14349;DHT22;7258;50.376;8.742;2024-02-28T08:38:05;2.60;99.90
14349;DHT22;7258;50.376;8.742;2024-02-28T08:40:08;2.70;99.90
14349;DHT22;7258;50.376;8.742;2024-02-28T08:42:13;2.70;99.90
14349;DHT22;7258;50.376;8.742;2024-02-28T08:44:15;2.80;99.90
14349;DHT22;7258;50.376;8.742;2024-02-28T08:46:19;2.80;99.90
14349;DHT22;7258;50.376;8.742;2024-02-28T08:48:21;2.80;99.90
14349;DHT22;7258;50.376;8.742;2024-02-28T08:50:24;2.90;99.90
14349;DHT22;7258;50.376;8.742;2024-02-28T08:52:27;2.90;99.90
14349;DHT22;7258;50.376;8.742;2024-02-28T08:54:30;2.90;99.90
14349;DHT22;7258;50.376;8.742;2024-02-28T08:56:33;2.90;99.90
14349;DHT22;7258;50.376;8.742;2024-02-28T08:58:39;2.80;99.90
14349;DHT22;7258;50.376;8.742;2024-02-28T09:00:42;2.80;99.90
14349;DHT22;7258;50.376;8.742;2024-02-28T09:02:45;2.90;99.90
14349;DHT22;7258;50.376;8.742;2024-02-28T09:04:47;2.90;99.90
14349;DHT22;7258;50.376;8.742;2024-02-28T09:06:53;2.80;99.90
14349;DHT22;7258;50.376;8.742;2024-02-28T09:08:56;2.80;99.90
14349;DHT22;7258;50.376;8.742;2024-02-28T09:10:59;2.80;99.90
14349;DHT22;7258;50.376;8.742;2024-02-28T09:13:02;2.90;99.90
14349;DHT22;7258;50.376;8.742;2024-02-28T09:15:08;3.00;99.90
14349;DHT22;7258;50.376;8.742;2024-02-28T09:17:11;3.00;99.90
14349;DHT22;7258;50.376;8.742;2024-02-28T09:19:13;3.00;99.90
14349;DHT22;7258;50.376;8.742;2024-02-28T09:21:16;3.10;99.90
14349;DHT22;7258;50.376;8.742;2024-02-28T09:23:19;3.20;99.90
14349;DHT22;7258;50.376;8.742;2024-02-28T09:25:22;3.30;99.90
14349;DHT22;7258;50.376;8.742;2024-02-28T09:27:30;3.40;99.90
14349;DHT22;7258;50.376;8.742;2024-02-28T09:29:33;3.30;99.90
14349;DHT22;7258;50.376;8.742;2024-02-28T09:31:37;3.30;99.90
14349;DHT22;7258;50.376;8.742;2024-02-28T09:33:40;3.40;99.90
14349;DHT22;7258;50.376;8.742;2024-02-28T09:35:43;3.50;99.90
14349;DHT22;7258;50.376;8.742;2024-02-28T09:37:47;3.60;99.90
14349;DHT22;7258;50.376;8.742;2024-02-28T09:39:49;3.70;99.90
14349;DHT22;7258;50.376;8.742;2024-02-28T09:41:52;3.80;99.90
14349;DHT22;7258;50.376;8.742;2024-02-28T09:43:55;3.90;99.90
14349;DHT22;7258;50.376;8.742;2024-02-28T09:46:03;4.00;99.90
14349;DHT22;7258;50.376;8.742;2024-02-28T09:48:09;4.00;99.90
14349;DHT22;7258;50.376;8.742;2024-02-28T09:50:13;4.10;99.90
14349;DHT22;7258;50.376;8.742;2024-02-28T09:52:17;4.20;99.90
14349;DHT22;7258;50.376;8.742;2024-02-28T09:54:20;4.20;99.90
14349;DHT22;7258;50.376;8.742;2024-02-28T09:56:23;4.30;99.90
14349;DHT22;7258;50.376;8.742;2024-02-28T09:58:27;4.30;99.90
14349;DHT22;7258;50.376;8.742;2024-02-28T10:00:31;4.40;99.90
14349;DHT22;7258;50.376;8.742;2024-02-28T10:02:35;4.40;99.90
14349;DHT22;7258;50.376;8.742;2024-02-28T10:04:41;4.40;99.90
14349;DHT22;7258;50.376;8.742;2024-02-28T10:06:44;4.40;99.90
14349;DHT22;7258;50.376;8.742;2024-02-28T10:08:47;4.50;99.90
14349;DHT22;7258;50.376;8.742;2024-02-28T10:10:50;4.60;99.90
14349;DHT22;7258;50.376;8.742;2024-02-28T10:12:56;4.70;99.90
14349;DHT22;7258;50.376;8.742;2024-02-28T10:15:00;4.80;99.90
14349;DHT22;7258;50.376;8.742;2024-02-28T10:17:03;4.70;99.90
14349;DHT22;7258;50.376;8.742;2024-02-28T10:19:06;4.70;99.90
14349;DHT22;7258;50.376;8.742;2024-02-28T10:21:11;4.80;99.90
14349;DHT22;7258;50.376;8.742;2024-02-28T10:23:17;4.80;99.90
14349;DHT22;7258;50.376;8.742;2024-02-28T10:25:19;4.90;99.90
14349;DHT22;7258;50.376;8.742;2024-02-28T10:27:23;4.90;99.90
14349;DHT22;7258;50.376;8.742;2024-02-28T10:29:25;5.00;99.90
14349;DHT22;7258;50.376;8.742;2024-02-28T10:31:32;5.00;99.90
14349;DHT22;7258;50.376;8.742;2024-02-28T10:33:35;5.10;99.90
14349;DHT22;7258;50.376;8.742;2024-02-28T10:35:39;5.20;99.90
14349;DHT22;7258;50.376;8.742;2024-02-28T10:37:44;5.30;99.90
14349;DHT22;7258;50.376;8.742;2024-02-28T10:39:47;5.30;99.90
14349;DHT22;7258;50.376;8.742;2024-02-28T10:41:52;5.40;99.90
14349;DHT22;7258;50.376;8.742;2024-02-28T10:43:56;5.40;99.90
14349;DHT22;7258;50.376;8.742;2024-02-28T10:46:00;5.50;99.90
14349;DHT22;7258;50.376;8.742;2024-02-28T10:48:06;5.50;99.90
14349;DHT22;7258;50.376;8.742;2024-02-28T10:50:10;5.60;99.90
14349;DHT22;7258;50.376;8.742;2024-02-28T10:52:12;5.50;99.90
14349;DHT22;7258;50.376;8.742;2024-02-28T10:54:20;5.50;99.90
14349;DHT22;7258;50.376;8.742;2024-02-28T10:56:25;5.60;99.90
14349;DHT22;7258;50.376;8.742;2024-02-28T10:58:31;5.60;99.90
14349;DHT22;7258;50.376;8.742;2024-02-28T11:00:37;5.60;99.90
14349;DHT22;7258;50.376;8.742;2024-02-28T11:02:40;5.60;99.90
14349;DHT22;7258;50.376;8.742;2024-02-28T11:04:45;5.80;99.90
14349;DHT22;7258;50.376;8.742;2024-02-28T11:06:48;5.90;99.90
14349;DHT22;7258;50.376;8.742;2024-02-28T11:08:53;6.10;99.90
14349;DHT22;7258;50.376;8.742;2024-02-28T11:11:02;6.30;99.90
14349;DHT22;7258;50.376;8.742;2024-02-28T11:13:06;6.50;99.90
14349;DHT22;7258;50.376;8.742;2024-02-28T11:15:16;6.60;99.90
14349;DHT22;7258;50.376;8.742;2024-02-28T11:17:26;6.60;99.90
14349;DHT22;7258;50.376;8.742;2024-02-28T11:19:31;6.50;99.90
14349;DHT22;7258;50.376;8.742;2024-02-28T11:21:35;6.50;99.90
14349;DHT22;7258;50.376;8.742;2024-02-28T11:23:38;6.50;99.90
14349;DHT22;7258;50.376;8.742;2024-02-28T11:25:41;6.50;99.90
14349;DHT22;7258;50.376;8.742;2024-02-28T11:27:48;6.50;99.90
14349;DHT22;7258;50.376;8.742;2024-02-28T11:29:52;6.60;99.90
14349;DHT22;7258;50.376;8.742;2024-02-28T11:31:55;6.60;99.90
14349;DHT22;7258;50.376;8.742;2024-02-28T11:33:58;6.70;99.90
14349;DHT22;7258;50.376;8.742;2024-02-28T11:36:02;6.70;99.90
14349;DHT22;7258;50.376;8.742;2024-02-28T11:38:06;6.80;99.90
14349;DHT22;7258;50.376;8.742;2024-02-28T11:40:11;7.00;99.90
14349;DHT22;7258;50.376;8.742;2024-02-28T11:42:15;7.10;99.90
14349;DHT22;7258;50.376;8.742;2024-02-28T11:44:20;7.10;99.90
14349;DHT22;7258;50.376;8.742;2024-02-28T11:46:23;7.10;99.90
14349;DHT22;7258;50.376;8.742;2024-02-28T11:48:27;7.10;99.90
14349;DHT22;7258;50.376;8.742;2024-02-28T11:50:30;7.10;99.90
14349;DHT22;7258;50.376;8.742;2024-02-28T11:52:32;7.10;99.90
14349;DHT22;7258;50.376;8.742;2024-02-28T11:54:36;7.10;99.90
14349;DHT22;7258;50.376;8.742;2024-02-28T11:56:39;7.10;99.90
14349;DHT22;7258;50.376;8.742;2024-02-28T11:58:49;7.10;99.90
14349;DHT22;7258;50.376;8.742;2024-02-28T12:00:54;7.10;99.90
14349;DHT22;7258;50.376;8.742;2024-02-28T12:03:04;7.10;99.90
14349;DHT22;7258;50.376;8.742;2024-02-28T12:05:08;7.10;99.90
14349;DHT22;7258;50.376;8.742;2024-02-28T12:07:12;7.10;99.90
14349;DHT22;7258;50.376;8.742;2024-02-28T12:09:15;7.00;99.90
14349;DHT22;7258;50.376;8.742;2024-02-28T12:11:29;6.90;99.90
14349;DHT22;7258;50.376;8.742;2024-02-28T12:13:32;6.90;99.90
14349;DHT22;7258;50.376;8.742;2024-02-28T12:15:35;6.90;99.90
14349;DHT22;7258;50.376;8.742;2024-02-28T12:17:40;7.00;99.90
14349;DHT22;7258;50.376;8.742;2024-02-28T12:19:43;7.10;99.90
14349;DHT22;7258;50.376;8.742;2024-02-28T12:21:46;7.30;99.90
14349;DHT22;7258;50.376;8.742;2024-02-28T12:23:49;7.30;99.90
14349;DHT22;7258;50.376;8.742;2024-02-28T12:25:52;7.30;99.90
14349;DHT22;7258;50.376;8.742;2024-02-28T12:27:55;7.30;99.90
14349;DHT22;7258;50.376;8.742;2024-02-28T12:29:58;7.40;99.90
14349;DHT22;7258;50.376;8.742;2024-02-28T12:32:01;7.40;99.90
14349;DHT22;7258;50.376;8.742;2024-02-28T12:34:05;7.50;99.90
14349;DHT22;7258;50.376;8.742;2024-02-28T12:36:08;7.40;99.90
14349;DHT22;7258;50.376;8.742;2024-02-28T12:38:10;7.40;99.90
14349;DHT22;7258;50.376;8.742;2024-02-28T12:40:13;7.30;99.90
14349;DHT22;7258;50.376;8.742;2024-02-28T12:42:17;7.30;99.90
14349;DHT22;7258;50.376;8.742;2024-02-28T12:44:20;7.10;99.90
14349;DHT22;7258;50.376;8.742;2024-02-28T12:46:22;7.00;99.90
14349;DHT22;7258;50.376;8.742;2024-02-28T12:48:25;6.90;99.90
14349;DHT22;7258;50.376;8.742;2024-02-28T12:50:29;7.00;99.90
14349;DHT22;7258;50.376;8.742;2024-02-28T12:52:32;7.00;99.90
14349;DHT22;7258;50.376;8.742;2024-02-28T12:54:35;7.00;99.90
14349;DHT22;7258;50.376;8.742;2024-02-28T12:56:39;7.00;99.90
14349;DHT22;7258;50.376;8.742;2024-02-28T12:58:41;7.00;99.90
14349;DHT22;7258;50.376;8.742;2024-02-28T13:00:45;7.10;99.90
14349;DHT22;7258;50.376;8.742;2024-02-28T13:02:48;7.10;99.90
14349;DHT22;7258;50.376;8.742;2024-02-28T13:04:51;7.10;99.90
14349;DHT22;7258;50.376;8.742;2024-02-28T13:06:55;7.10;99.90
14349;DHT22;7258;50.376;8.742;2024-02-28T13:08:58;7.00;99.90
14349;DHT22;7258;50.376;8.742;2024-02-28T13:11:01;7.00;99.90
14349;DHT22;7258;50.376;8.742;2024-02-28T13:13:03;7.10;99.90
14349;DHT22;7258;50.376;8.742;2024-02-28T13:15:06;7.10;99.90
14349;DHT22;7258;50.376;8.742;2024-02-28T13:17:10;7.10;99.90
14349;DHT22;7258;50.376;8.742;2024-02-28T13:19:12;7.10;99.90
14349;DHT22;7258;50.376;8.742;2024-02-28T13:21:16;7.20;99.90
14349;DHT22;7258;50.376;8.742;2024-02-28T13:23:20;7.10;99.90